createdAt,value
2024-05-09T00:00:15.767Z,75.47
2024-05-09T00:01:20.494Z,75.17
2024-05-09T00:02:22.358Z,75.49
2024-05-09T00:03:24.123Z,75.58
2024-05-09T00:04:26.030Z,75.62
2024-05-09T00:05:27.873Z,75.34
2024-05-09T00:06:29.668Z,75.25
2024-05-09T00:07:31.387Z,75.37
2024-05-09T00:08:33.161Z,75.25
2024-05-09T00:09:36.215Z,75.09
2024-05-09T00:10:39.410Z,75.13
2024-05-09T00:11:42.240Z,75.29
2024-05-09T00:12:44.051Z,75.15
2024-05-09T00:13:46.223Z,75.18
2024-05-09T00:14:47.870Z,74.90
2024-05-09T00:15:49.528Z,74.87
2024-05-09T00:16:51.154Z,74.52
2024-05-09T00:17:53.104Z,74.28
2024-05-09T00:18:54.938Z,74.76
2024-05-09T00:19:56.651Z,74.82
2024-05-09T00:20:58.759Z,74.59
2024-05-09T00:22:00.427Z,74.83
2024-05-09T00:23:02.127Z,74.93
2024-05-09T00:24:03.997Z,74.51
2024-05-09T00:25:07.564Z,74.24
2024-05-09T00:26:09.304Z,74.17
2024-05-09T00:27:13.252Z,74.15
2024-05-09T00:28:15.147Z,74.26
2024-05-09T00:29:16.827Z,74.41
2024-05-09T00:30:27.749Z,74.31
2024-05-09T00:31:34.373Z,74.52
2024-05-09T00:32:36.287Z,74.18
2024-05-09T00:33:38.225Z,74.40
2024-05-09T00:34:39.960Z,74.14
2024-05-09T00:35:41.854Z,74.30
2024-05-09T00:36:43.639Z,74.36
2024-05-09T00:37:45.354Z,74.49
2024-05-09T00:38:47.062Z,74.74
2024-05-09T00:39:48.682Z,74.78
2024-05-09T00:40:50.426Z,74.81
2024-05-09T00:41:52.107Z,75.00
2024-05-09T00:42:53.860Z,75.06
2024-05-09T00:43:55.581Z,75.31
2024-05-09T00:44:57.287Z,75.27
2024-05-09T00:46:00.843Z,75.35
2024-05-09T00:47:02.914Z,75.39
2024-05-09T00:48:06.026Z,75.73
2024-05-09T00:49:08.378Z,75.85
2024-05-09T00:50:15.969Z,75.79
2024-05-09T00:51:24.241Z,75.89
2024-05-09T00:52:27.281Z,75.82
2024-05-09T00:53:29.746Z,75.80
2024-05-09T00:54:32.159Z,75.66
2024-05-09T00:55:34.958Z,75.91
2024-05-09T00:56:37.179Z,75.94
2024-05-09T00:57:39.159Z,75.72
2024-05-09T00:58:42.607Z,75.97
2024-05-09T00:59:44.416Z,75.33
2024-05-09T01:00:48.169Z,75.36
2024-05-09T01:01:50.047Z,75.06
2024-05-09T01:02:51.959Z,75.11
2024-05-09T01:03:54.138Z,75.30
2024-05-09T01:04:58.542Z,75.15
2024-05-09T01:06:00.398Z,75.00
2024-05-09T01:07:02.151Z,74.92
2024-05-09T01:08:04.589Z,74.87
2024-05-09T01:09:06.317Z,75.23
2024-05-09T01:10:14.091Z,74.90
2024-05-09T01:11:22.610Z,75.08
2024-05-09T01:12:24.481Z,74.97
2024-05-09T01:13:26.154Z,74.62
2024-05-09T01:14:27.806Z,74.56
2024-05-09T01:15:29.535Z,74.70
2024-05-09T01:16:31.644Z,74.67
2024-05-09T01:17:33.603Z,74.48
2024-05-09T01:18:35.407Z,74.51
2024-05-09T01:19:37.215Z,74.64
2024-05-09T01:20:42.514Z,74.79
2024-05-09T01:21:46.369Z,74.21
2024-05-09T01:22:49.935Z,74.05
2024-05-09T01:23:51.734Z,73.83
2024-05-09T01:24:53.518Z,74.01
2024-05-09T01:25:55.303Z,74.05
2024-05-09T01:26:56.946Z,74.14
2024-05-09T01:27:58.841Z,74.27
2024-05-09T01:29:00.634Z,73.81
2024-05-09T01:30:04.021Z,73.88
2024-05-09T01:31:14.655Z,73.53
2024-05-09T01:32:16.448Z,73.29
2024-05-09T01:33:20.992Z,73.06
2024-05-09T01:34:22.802Z,72.97
2024-05-09T01:35:24.564Z,73.28
2024-05-09T01:36:26.357Z,72.89
2024-05-09T01:37:28.029Z,72.71
2024-05-09T01:38:29.741Z,72.76
2024-05-09T01:39:31.480Z,72.08
2024-05-09T01:40:37.855Z,70.83
2024-05-09T01:41:41.595Z,70.71
2024-05-09T01:42:43.427Z,70.46
2024-05-09T01:43:45.114Z,70.51
2024-05-09T01:44:46.789Z,70.21
2024-05-09T01:45:48.411Z,69.31
2024-05-09T01:46:50.053Z,69.06
2024-05-09T01:47:51.998Z,69.30
2024-05-09T01:48:53.865Z,68.40
2024-05-09T01:49:55.596Z,67.84
2024-05-09T01:50:57.328Z,67.97
2024-05-09T01:51:58.989Z,67.95
2024-05-09T01:53:00.707Z,67.56
2024-05-09T01:54:02.426Z,67.19
2024-05-09T01:55:07.235Z,67.13
2024-05-09T01:56:09.516Z,66.50
2024-05-09T01:57:11.229Z,66.49
2024-05-09T01:58:12.848Z,66.16
2024-05-09T01:59:14.616Z,65.67
2024-05-09T02:00:25.858Z,65.35
2024-05-09T02:01:55.378Z,65.03
2024-05-09T02:02:54.237Z,64.60
2024-05-09T02:03:56.288Z,63.63
2024-05-09T02:04:58.184Z,63.45
2024-05-09T02:05:59.952Z,63.40
2024-05-09T02:07:01.616Z,62.59
2024-05-09T02:08:04.349Z,62.78
2024-05-09T02:09:06.239Z,62.76
2024-05-09T02:10:13.809Z,62.34
2024-05-09T02:11:18.401Z,62.06
2024-05-09T02:12:20.171Z,62.25
2024-05-09T02:13:21.926Z,62.12
2024-05-09T02:14:23.668Z,61.44
2024-05-09T02:15:25.427Z,61.43
2024-05-09T02:16:27.015Z,61.46
2024-05-09T02:17:29.007Z,61.23
2024-05-09T02:18:30.906Z,60.28
2024-05-09T02:19:33.077Z,60.32
2024-05-09T02:20:38.128Z,60.02
2024-05-09T02:21:39.791Z,60.09
2024-05-09T02:22:41.420Z,59.94
2024-05-09T02:23:43.100Z,59.77
2024-05-09T02:24:44.789Z,60.37
2024-05-09T02:25:46.459Z,59.87
2024-05-09T02:26:48.105Z,59.56
2024-05-09T02:27:50.113Z,59.62
2024-05-09T02:28:51.801Z,59.17
2024-05-09T02:29:53.428Z,59.10
2024-05-09T02:30:55.112Z,59.54
2024-05-09T02:31:56.896Z,59.59
2024-05-09T02:32:59.183Z,59.55
2024-05-09T02:34:01.267Z,59.03
2024-05-09T02:35:03.536Z,58.88
2024-05-09T02:36:05.991Z,58.81
2024-05-09T02:37:07.600Z,58.90
2024-05-09T02:38:09.549Z,59.06
2024-05-09T02:39:11.404Z,58.65
2024-05-09T02:40:15.006Z,58.85
2024-05-09T02:41:23.155Z,59.24
2024-05-09T02:42:24.884Z,59.35
2024-05-09T02:43:26.541Z,58.93
2024-05-09T02:44:31.150Z,58.39
2024-05-09T02:45:33.105Z,58.23
2024-05-09T02:46:35.008Z,58.62
2024-05-09T02:47:37.026Z,58.43
2024-05-09T02:48:39.009Z,58.07
2024-05-09T02:49:40.859Z,58.18
2024-05-09T02:50:43.011Z,58.23
2024-05-09T02:51:44.692Z,58.36
2024-05-09T02:52:46.374Z,58.10
2024-05-09T02:53:48.062Z,57.84
2024-05-09T02:54:49.756Z,57.95
2024-05-09T02:55:51.477Z,58.17
2024-05-09T02:56:53.084Z,57.68
2024-05-09T02:57:54.764Z,57.91
2024-05-09T02:58:56.484Z,57.35
2024-05-09T02:59:58.169Z,57.34
2024-05-09T03:01:00.010Z,57.57
2024-05-09T03:02:01.830Z,57.35
2024-05-09T03:03:04.889Z,57.99
2024-05-09T03:04:06.945Z,57.48
2024-05-09T03:05:09.071Z,56.87
2024-05-09T03:06:10.698Z,57.11
2024-05-09T03:07:12.386Z,56.82
2024-05-09T03:08:14.265Z,57.01
2024-05-09T03:09:16.072Z,57.10
2024-05-09T03:10:22.456Z,56.92
2024-05-09T03:11:29.797Z,57.22
2024-05-09T03:12:31.550Z,57.13
2024-05-09T03:13:33.188Z,56.85
2024-05-09T03:14:34.893Z,56.83
2024-05-09T03:15:36.794Z,56.59
2024-05-09T03:16:40.849Z,56.68
2024-05-09T03:17:42.777Z,56.50
2024-05-09T03:18:44.880Z,56.79
2024-05-09T03:19:46.702Z,56.52
2024-05-09T03:20:48.391Z,56.53
2024-05-09T03:21:52.966Z,56.73
2024-05-09T03:22:56.959Z,56.74
2024-05-09T03:23:58.725Z,56.76
2024-05-09T03:25:00.385Z,56.99
2024-05-09T03:26:02.050Z,56.92
2024-05-09T03:27:03.785Z,56.86
2024-05-09T03:28:06.161Z,57.05
2024-05-09T03:29:07.817Z,57.16
2024-05-09T03:30:10.022Z,57.46
2024-05-09T03:31:11.685Z,57.25
2024-05-09T03:32:13.411Z,57.46
2024-05-09T03:33:19.852Z,57.59
2024-05-09T03:34:22.425Z,57.26
2024-05-09T03:35:24.201Z,57.80
2024-05-09T03:36:25.851Z,57.45
2024-05-09T03:37:27.474Z,57.60
2024-05-09T03:38:29.473Z,57.55
2024-05-09T03:39:32.404Z,57.85
2024-05-09T03:40:34.309Z,58.03
2024-05-09T03:41:36.037Z,57.83
2024-05-09T03:42:40.750Z,57.80
2024-05-09T03:43:43.038Z,58.00
2024-05-09T03:44:44.693Z,57.60
2024-05-09T03:45:48.453Z,57.27
2024-05-09T03:46:50.180Z,57.31
2024-05-09T03:47:52.434Z,57.12
2024-05-09T03:48:54.511Z,56.81
2024-05-09T03:49:56.247Z,56.69
2024-05-09T03:50:57.936Z,56.51
2024-05-09T03:52:03.930Z,56.42
2024-05-09T03:53:09.433Z,56.62
2024-05-09T03:54:11.503Z,57.00
2024-05-09T03:55:13.139Z,56.51
2024-05-09T03:56:14.827Z,56.07
2024-05-09T03:57:16.494Z,56.46
2024-05-09T03:58:18.208Z,56.63
2024-05-09T03:59:19.850Z,56.48
2024-05-09T04:00:30.747Z,56.04
2024-05-09T04:01:38.738Z,56.03
2024-05-09T04:02:42.297Z,56.06
2024-05-09T04:03:46.936Z,55.98
2024-05-09T04:04:48.883Z,55.74
2024-05-09T04:05:50.638Z,55.78
2024-05-09T04:06:52.321Z,56.32
2024-05-09T04:07:54.027Z,56.02
2024-05-09T04:08:55.679Z,56.45
2024-05-09T04:09:57.304Z,56.55
2024-05-09T04:10:58.966Z,55.98
2024-05-09T04:12:00.901Z,55.25
2024-05-09T04:13:05.495Z,54.12
2024-05-09T04:14:07.412Z,55.05
2024-05-09T04:15:12.841Z,54.78
2024-05-09T04:16:15.135Z,55.22
2024-05-09T04:17:16.810Z,54.85
2024-05-09T04:18:18.511Z,54.01
2024-05-09T04:19:20.494Z,54.05
2024-05-09T04:20:33.059Z,53.91
2024-05-09T04:21:39.920Z,53.73
2024-05-09T04:22:41.581Z,53.48
2024-05-09T04:23:43.242Z,53.62
2024-05-09T04:24:44.983Z,53.76
2024-05-09T04:25:46.672Z,53.22
2024-05-09T04:26:48.400Z,52.79
2024-05-09T04:27:54.426Z,52.68
2024-05-09T04:28:56.112Z,52.82
2024-05-09T04:29:57.728Z,53.14
2024-05-09T04:30:59.548Z,53.05
2024-05-09T04:32:04.465Z,53.01
2024-05-09T04:33:13.240Z,52.34
2024-05-09T04:34:16.900Z,51.95
2024-05-09T04:35:21.203Z,52.11
2024-05-09T04:36:23.217Z,51.21
2024-05-09T04:37:25.244Z,50.45
2024-05-09T04:38:28.783Z,49.71
2024-05-09T04:39:31.043Z,50.02
2024-05-09T04:40:35.910Z,49.56
2024-05-09T04:41:38.925Z,48.88
2024-05-09T04:42:40.652Z,49.50
2024-05-09T04:43:42.308Z,49.37
2024-05-09T04:44:44.020Z,48.96
2024-05-09T04:45:46.144Z,49.31
2024-05-09T04:46:47.885Z,48.50
2024-05-09T04:47:49.954Z,48.41
2024-05-09T04:48:52.578Z,48.38
2024-05-09T04:49:57.180Z,48.10
2024-05-09T04:51:00.819Z,48.26
2024-05-09T04:52:02.587Z,48.57
2024-05-09T04:53:08.506Z,47.83
2024-05-09T04:54:22.185Z,47.02
2024-05-09T04:55:31.898Z,47.03
2024-05-09T04:56:33.688Z,46.85
2024-05-09T04:57:35.424Z,46.34
2024-05-09T04:58:37.042Z,46.55
2024-05-09T04:59:38.746Z,46.67
2024-05-09T05:00:43.277Z,46.48
2024-05-09T05:01:45.160Z,47.09
2024-05-09T05:02:46.988Z,46.82
2024-05-09T05:03:48.962Z,46.95
2024-05-09T05:04:50.852Z,46.83
2024-05-09T05:05:52.630Z,46.51
2024-05-09T05:06:54.255Z,46.53
2024-05-09T05:07:56.000Z,46.39
2024-05-09T05:08:57.688Z,46.11
2024-05-09T05:09:59.327Z,45.66
2024-05-09T05:11:01.073Z,45.99
2024-05-09T05:12:23.093Z,46.11
2024-05-09T05:13:29.964Z,46.16
2024-05-09T05:14:31.675Z,46.39
2024-05-09T05:15:33.397Z,46.18
2024-05-09T05:16:35.212Z,46.44
2024-05-09T05:17:37.125Z,46.72
2024-05-09T05:18:39.092Z,47.06
2024-05-09T05:19:40.856Z,46.56
2024-05-09T05:20:43.200Z,46.74
2024-05-09T05:21:44.971Z,46.83
2024-05-09T05:22:46.860Z,46.66
2024-05-09T05:23:48.635Z,46.27
2024-05-09T05:24:50.336Z,46.33
2024-05-09T05:25:53.205Z,46.70
2024-05-09T05:26:55.355Z,46.76
2024-05-09T05:27:56.985Z,46.73
2024-05-09T05:28:58.731Z,46.83
2024-05-09T05:30:00.425Z,47.05
2024-05-09T05:31:02.102Z,46.79
2024-05-09T05:32:04.093Z,46.55
2024-05-09T05:33:09.948Z,46.76
2024-05-09T05:34:11.770Z,45.96
2024-05-09T05:35:13.536Z,46.01
2024-05-09T05:36:15.203Z,45.71
2024-05-09T05:37:16.846Z,46.15
2024-05-09T05:38:19.139Z,46.02
2024-05-09T05:39:24.799Z,46.04
2024-05-09T05:40:33.329Z,46.24
2024-05-09T05:41:38.502Z,46.73
2024-05-09T05:42:40.187Z,46.90
2024-05-09T05:43:41.851Z,46.38
2024-05-09T05:44:43.514Z,46.26
2024-05-09T05:45:48.500Z,45.94
2024-05-09T05:46:50.233Z,46.20
2024-05-09T05:47:54.756Z,46.01
2024-05-09T05:48:56.874Z,46.28
2024-05-09T05:49:58.647Z,46.37
2024-05-09T05:51:03.624Z,46.10
2024-05-09T05:52:06.203Z,45.52
2024-05-09T05:53:10.170Z,45.18
2024-05-09T05:54:12.293Z,45.62
2024-05-09T05:55:14.035Z,45.55
2024-05-09T05:56:15.839Z,45.43
2024-05-09T05:57:17.982Z,45.42
2024-05-09T05:58:20.448Z,45.57
2024-05-09T05:59:22.929Z,45.09
2024-05-09T06:00:34.007Z,44.82
2024-05-09T06:01:40.343Z,44.71
2024-05-09T06:02:42.915Z,44.54
2024-05-09T06:03:44.903Z,44.40
2024-05-09T06:04:46.961Z,45.16
2024-05-09T06:05:48.846Z,44.99
2024-05-09T06:06:50.916Z,45.58
2024-05-09T06:07:52.596Z,45.84
2024-05-09T06:08:54.322Z,46.32
2024-05-09T06:09:56.095Z,46.34
2024-05-09T06:10:57.893Z,45.72
2024-05-09T06:11:59.621Z,45.41
2024-05-09T06:13:01.350Z,45.42
2024-05-09T06:14:04.279Z,45.43
2024-05-09T06:15:06.290Z,45.64
2024-05-09T06:16:07.929Z,45.81
2024-05-09T06:17:09.733Z,46.55
2024-05-09T06:18:13.294Z,46.24
2024-05-09T06:19:15.308Z,45.38
2024-05-09T06:20:23.853Z,45.54
2024-05-09T06:21:33.326Z,45.02
2024-05-09T06:22:35.052Z,45.50
2024-05-09T06:23:46.827Z,45.43
2024-05-09T06:24:48.500Z,45.48
2024-05-09T06:25:50.232Z,45.96
2024-05-09T06:26:52.062Z,46.45
2024-05-09T06:27:53.782Z,46.86
2024-05-09T06:28:55.545Z,46.75
2024-05-09T06:29:58.753Z,46.33
2024-05-09T06:31:01.035Z,45.82
2024-05-09T06:32:03.374Z,45.21
2024-05-09T06:33:06.087Z,44.67
2024-05-09T06:34:08.039Z,45.15
2024-05-09T06:35:09.841Z,44.60
2024-05-09T06:36:12.137Z,45.01
2024-05-09T06:37:13.820Z,45.36
2024-05-09T06:38:15.615Z,45.55
2024-05-09T06:39:17.216Z,45.23
2024-05-09T06:40:25.480Z,45.43
2024-05-09T06:41:31.550Z,45.25
2024-05-09T06:42:33.290Z,45.04
2024-05-09T06:43:36.763Z,45.28
2024-05-09T06:44:38.491Z,45.02
2024-05-09T06:45:40.417Z,45.16
2024-05-09T06:46:45.399Z,45.74
2024-05-09T06:47:48.625Z,45.13
2024-05-09T06:48:51.536Z,44.79
2024-05-09T06:49:53.413Z,45.12
2024-05-09T06:50:55.245Z,44.17
2024-05-09T06:51:56.921Z,43.91
2024-05-09T06:52:58.587Z,43.95
2024-05-09T06:54:00.457Z,44.60
2024-05-09T06:55:02.203Z,44.20
2024-05-09T06:56:05.079Z,43.99
2024-05-09T06:57:07.002Z,44.25
2024-05-09T06:58:09.668Z,44.05
2024-05-09T06:59:11.615Z,44.65
2024-05-09T07:00:19.194Z,44.89
2024-05-09T07:01:32.032Z,44.67
2024-05-09T07:02:34.018Z,44.88
2024-05-09T07:03:36.071Z,44.81
2024-05-09T07:04:37.958Z,44.77
2024-05-09T07:05:40.277Z,44.73
2024-05-09T07:06:42.497Z,45.13
2024-05-09T07:07:44.644Z,45.26
2024-05-09T07:08:48.039Z,45.30
2024-05-09T07:09:50.334Z,44.56
2024-05-09T07:10:52.113Z,44.55
2024-05-09T07:11:54.566Z,44.38
2024-05-09T07:12:56.340Z,44.66
2024-05-09T07:13:58.058Z,44.82
2024-05-09T07:14:59.814Z,44.89
2024-05-09T07:16:01.627Z,44.78
2024-05-09T07:17:03.565Z,44.90
2024-05-09T07:18:14.346Z,44.67
2024-05-09T07:19:16.422Z,44.85
2024-05-09T07:20:23.722Z,42.70
2024-05-09T07:21:33.980Z,42.03
2024-05-09T07:22:35.826Z,41.54
2024-05-09T07:23:37.694Z,41.68
2024-05-09T07:24:39.450Z,41.35
2024-05-09T07:25:41.660Z,40.90
2024-05-09T07:26:43.542Z,40.59
2024-05-09T07:27:45.344Z,40.92
2024-05-09T07:28:47.389Z,40.78
2024-05-09T07:29:50.667Z,40.68
2024-05-09T07:30:52.402Z,40.79
2024-05-09T07:31:54.237Z,41.47
2024-05-09T07:32:56.760Z,41.17
2024-05-09T07:33:59.366Z,40.50
2024-05-09T07:35:01.243Z,40.33
2024-05-09T07:36:03.084Z,39.38
2024-05-09T07:37:11.356Z,39.34
2024-05-09T07:38:13.083Z,39.83
2024-05-09T07:39:14.829Z,40.32
2024-05-09T07:40:24.964Z,40.89
2024-05-09T07:41:36.147Z,40.93
2024-05-09T07:42:37.974Z,40.85
2024-05-09T07:43:39.721Z,41.42
2024-05-09T07:44:41.583Z,41.27
2024-05-09T07:45:51.732Z,41.52
2024-05-09T07:53:30.102Z,41.33
2024-05-09T07:53:46.187Z,41.53
2024-05-09T07:54:51.504Z,39.90
2024-05-09T07:55:54.487Z,40.54
2024-05-09T07:56:56.465Z,40.58
2024-05-09T07:57:58.259Z,40.04
2024-05-09T07:58:59.983Z,39.99
2024-05-09T08:00:01.690Z,40.04
2024-05-09T08:01:04.295Z,40.27
2024-05-09T08:02:06.474Z,40.66
2024-05-09T08:03:09.326Z,40.87
2024-05-09T08:04:11.192Z,40.27
2024-05-09T08:05:13.229Z,39.94
2024-05-09T08:06:15.492Z,39.51
2024-05-09T08:07:18.856Z,39.42
2024-05-09T08:08:21.063Z,39.11
2024-05-09T08:09:25.709Z,39.19
2024-05-09T08:10:29.138Z,39.06
2024-05-09T08:11:31.659Z,38.40
2024-05-09T08:12:33.443Z,38.39
2024-05-09T08:13:35.158Z,39.46
2024-05-09T08:14:36.967Z,39.44
2024-05-09T08:15:38.722Z,39.17
2024-05-09T08:16:40.517Z,39.44
2024-05-09T08:17:42.259Z,39.40
2024-05-09T08:18:44.069Z,39.32
2024-05-09T08:19:46.738Z,39.66
2024-05-09T08:20:49.051Z,39.60
2024-05-09T08:21:50.928Z,39.76
2024-05-09T08:22:52.703Z,38.75
2024-05-09T08:23:55.084Z,38.11
2024-05-09T08:24:59.777Z,38.17
2024-05-09T08:26:01.609Z,37.67
2024-05-09T08:27:03.478Z,37.61
2024-05-09T08:28:06.529Z,37.12
2024-05-09T08:29:09.631Z,36.68
2024-05-09T08:30:18.960Z,36.85
2024-05-09T08:31:26.772Z,36.46
2024-05-09T08:32:31.176Z,36.89
2024-05-09T08:33:33.348Z,37.62
2024-05-09T08:34:35.340Z,37.63
2024-05-09T08:35:37.095Z,38.39
2024-05-09T08:36:39.752Z,38.66
2024-05-09T08:37:42.559Z,38.06
2024-05-09T08:38:44.367Z,38.27
2024-05-09T08:39:46.110Z,38.17
2024-05-09T08:40:48.220Z,36.67
2024-05-09T08:41:53.166Z,36.04
2024-05-09T08:42:56.598Z,36.32
2024-05-09T08:43:59.421Z,35.41
2024-05-09T08:45:01.436Z,34.83
2024-05-09T08:46:06.180Z,33.88
2024-05-09T08:47:09.249Z,34.10
2024-05-09T08:48:12.959Z,33.95
2024-05-09T08:49:16.397Z,34.12
2024-05-09T08:50:29.218Z,35.21
2024-05-09T08:51:38.170Z,36.80
2024-05-09T08:52:39.872Z,36.73
2024-05-09T08:53:41.610Z,36.62
2024-05-09T08:54:43.893Z,36.89
2024-05-09T08:55:46.207Z,35.33
2024-05-09T08:56:49.572Z,33.98
2024-05-09T08:57:52.495Z,34.43
2024-05-09T08:59:00.321Z,35.46
2024-05-09T09:00:07.881Z,36.05
2024-05-09T09:01:13.354Z,36.08
2024-05-09T09:02:17.492Z,36.25
2024-05-09T09:03:25.456Z,36.02
2024-05-09T09:04:29.221Z,36.36
2024-05-09T09:05:37.026Z,36.40
2024-05-09T09:06:38.984Z,35.26
2024-05-09T09:07:41.792Z,35.30
2024-05-09T09:08:45.143Z,35.84
2024-05-09T09:09:47.744Z,35.44
2024-05-09T09:10:53.045Z,35.21
2024-05-09T09:11:54.875Z,35.57
2024-05-09T09:13:02.592Z,35.93
2024-05-09T09:14:04.324Z,35.56
2024-05-09T09:15:06.119Z,35.74
2024-05-09T09:16:08.069Z,35.49
2024-05-09T09:17:16.433Z,35.90
2024-05-09T09:18:18.696Z,36.25
2024-05-09T09:19:21.995Z,35.77
2024-05-09T09:20:34.009Z,35.26
2024-05-09T09:21:41.288Z,35.28
2024-05-09T09:22:42.992Z,35.14
2024-05-09T09:23:44.840Z,35.01
2024-05-09T09:24:46.623Z,34.80
2024-05-09T09:25:49.066Z,35.44
2024-05-09T09:26:50.821Z,34.74
2024-05-09T09:27:52.575Z,34.21
2024-05-09T09:28:59.146Z,34.81
2024-05-09T09:30:00.855Z,35.27
2024-05-09T09:31:03.463Z,34.62
2024-05-09T09:32:07.403Z,33.84
2024-05-09T09:33:09.524Z,33.38
2024-05-09T09:34:11.654Z,33.48
2024-05-09T09:35:13.473Z,33.81
2024-05-09T09:36:17.212Z,33.24
2024-05-09T09:37:27.153Z,32.80
2024-05-09T09:38:31.221Z,32.47
2024-05-09T09:39:35.084Z,32.19
2024-05-09T09:40:44.990Z,32.36
2024-05-09T09:41:51.446Z,32.42
2024-05-09T09:42:56.501Z,32.91
2024-05-09T09:44:00.263Z,33.24
2024-05-09T09:45:05.309Z,33.50
2024-05-09T09:46:11.738Z,33.52
2024-05-09T09:47:16.684Z,33.96
2024-05-09T09:48:21.534Z,33.84
2024-05-09T09:49:23.885Z,33.40
2024-05-09T09:50:33.368Z,33.11
2024-05-09T09:51:42.487Z,32.72
2024-05-09T09:52:45.426Z,32.99
2024-05-09T09:53:49.388Z,32.54
2024-05-09T09:54:53.232Z,32.62
2024-05-09T09:55:55.418Z,32.88
2024-05-09T09:56:57.691Z,32.73
2024-05-09T09:58:00.259Z,32.89
2024-05-09T09:59:05.381Z,33.00
2024-05-09T10:00:17.198Z,32.96
2024-05-09T10:01:22.443Z,32.64
2024-05-09T10:02:25.406Z,32.30
2024-05-09T10:03:27.677Z,32.97
2024-05-09T10:04:31.820Z,33.31
2024-05-09T10:05:39.829Z,33.34
2024-05-09T10:06:49.418Z,32.65
2024-05-09T10:07:52.189Z,32.55
2024-05-09T10:08:55.171Z,33.34
2024-05-09T10:09:57.163Z,32.36
2024-05-09T10:11:05.329Z,32.44
2024-05-09T10:12:12.469Z,32.41
2024-05-09T10:13:14.678Z,31.53
2024-05-09T10:14:20.696Z,31.79
2024-05-09T10:15:22.432Z,32.02
2024-05-09T10:16:29.936Z,32.42
2024-05-09T10:17:31.805Z,32.01
2024-05-09T10:18:38.973Z,32.21
2024-05-09T10:19:41.235Z,32.24
2024-05-09T10:20:44.559Z,32.26
2024-05-09T10:21:46.371Z,32.35
2024-05-09T10:22:49.395Z,32.22
2024-05-09T10:24:06.009Z,31.99
2024-05-09T10:25:07.766Z,31.85
2024-05-09T10:26:09.606Z,31.82
2024-05-09T10:27:11.352Z,31.76
2024-05-09T10:28:13.092Z,31.48
2024-05-09T10:29:17.243Z,31.66
2024-05-09T10:30:29.613Z,30.82
2024-05-09T10:31:40.681Z,30.97
2024-05-09T10:32:43.831Z,30.42
2024-05-09T10:33:47.782Z,30.28
2024-05-09T10:35:10.708Z,29.66
2024-05-09T10:36:13.099Z,29.21
2024-05-09T10:37:14.875Z,28.56
2024-05-09T10:38:17.218Z,28.79
2024-05-09T10:39:20.104Z,29.09
2024-05-09T10:41:24.488Z,29.14
2024-05-09T10:42:28.318Z,29.18
2024-05-09T10:43:30.354Z,29.01
2024-05-09T10:44:36.534Z,28.64
2024-05-09T10:45:38.228Z,28.31
2024-05-09T10:46:46.445Z,28.50
2024-05-09T10:47:48.673Z,28.30
2024-05-09T10:48:53.683Z,27.75
2024-05-09T10:49:56.038Z,27.75
2024-05-09T10:50:58.146Z,27.11
2024-05-09T10:52:03.028Z,26.74
2024-05-09T10:53:06.977Z,27.25
2024-05-09T10:54:09.004Z,26.83
2024-05-09T10:55:10.752Z,26.14
2024-05-09T10:56:13.476Z,25.95
2024-05-09T10:57:15.389Z,26.10
2024-05-09T10:58:17.174Z,26.41
2024-05-09T10:59:18.943Z,26.21
2024-05-09T11:00:27.580Z,25.43
2024-05-09T11:01:35.602Z,25.38
2024-05-09T11:02:40.914Z,25.42
2024-05-09T11:03:47.343Z,24.66
2024-05-09T11:04:50.336Z,24.90
2024-05-09T11:05:54.214Z,24.70
2024-05-09T11:06:56.801Z,24.80
2024-05-09T11:07:58.602Z,24.85
2024-05-09T11:09:00.316Z,25.28
2024-05-09T11:10:04.908Z,24.81
2024-05-09T11:11:09.419Z,24.51
2024-05-09T11:12:12.378Z,24.48
2024-05-09T11:13:34.906Z,24.46
2024-05-09T11:14:36.695Z,24.00
2024-05-09T11:15:43.678Z,24.47
2024-05-09T11:16:45.532Z,24.25
2024-05-09T11:17:47.387Z,24.10
2024-05-09T11:18:56.841Z,24.14
2024-05-09T11:19:59.223Z,23.70
2024-05-09T11:21:00.997Z,23.21
2024-05-09T11:22:06.168Z,23.21
2024-05-09T11:23:08.032Z,23.14
2024-05-09T11:24:11.517Z,23.26
2024-05-09T11:25:13.654Z,23.00
2024-05-09T11:26:18.091Z,22.87
2024-05-09T11:27:20.449Z,22.86
2024-05-09T11:28:25.014Z,22.85
2024-05-09T11:29:40.509Z,23.14
2024-05-09T11:30:42.336Z,23.54
2024-05-09T11:31:48.242Z,23.05
2024-05-09T11:32:51.392Z,22.64
2024-05-09T11:33:53.709Z,22.71
2024-05-09T11:34:55.782Z,22.69
2024-05-09T11:35:57.502Z,22.93
2024-05-09T11:36:59.370Z,22.97
2024-05-09T11:38:01.265Z,22.91
2024-05-09T11:39:03.192Z,22.80
2024-05-09T11:40:07.093Z,22.37
2024-05-09T11:41:17.323Z,22.81
2024-05-09T11:42:21.346Z,23.08
2024-05-09T11:43:23.352Z,23.45
2024-05-09T11:44:26.070Z,23.17
2024-05-09T11:45:27.812Z,22.82
2024-05-09T11:46:29.563Z,22.56
2024-05-09T11:47:31.326Z,21.62
2024-05-09T11:48:33.586Z,21.67
2024-05-09T11:49:35.463Z,21.81
2024-05-09T11:50:41.126Z,21.62
2024-05-09T11:51:42.918Z,21.45
2024-05-09T11:52:47.232Z,21.95
2024-05-09T11:53:48.925Z,22.02
2024-05-09T11:54:50.683Z,22.22
2024-05-09T11:55:52.576Z,22.65
2024-05-09T11:56:54.401Z,23.03
2024-05-09T11:57:56.468Z,22.55
2024-05-09T11:58:58.359Z,21.75
2024-05-09T12:00:00.119Z,21.78
2024-05-09T12:01:01.995Z,21.68
2024-05-09T12:02:04.017Z,21.32
2024-05-09T12:03:07.273Z,21.25
2024-05-09T12:04:09.400Z,21.94
2024-05-09T12:05:11.373Z,22.14
2024-05-09T12:06:13.193Z,21.92
2024-05-09T12:07:17.011Z,22.18
2024-05-09T12:08:19.064Z,22.27
2024-05-09T12:09:23.380Z,22.13
2024-05-09T12:10:32.136Z,22.24
2024-05-09T12:11:36.270Z,22.28
2024-05-09T12:12:40.570Z,22.46
2024-05-09T12:13:42.272Z,22.32
2024-05-09T12:14:43.990Z,21.63
2024-05-09T12:15:45.753Z,21.45
2024-05-09T12:16:47.683Z,20.84
2024-05-09T12:17:51.873Z,20.62
2024-05-09T12:18:57.115Z,20.38
2024-05-09T12:20:01.726Z,20.17
2024-05-09T12:21:03.816Z,20.27
2024-05-09T12:22:05.661Z,20.24
2024-05-09T12:23:08.643Z,20.50
2024-05-09T12:24:14.426Z,20.26
2024-05-09T12:25:17.084Z,20.23
2024-05-09T12:26:18.902Z,20.19
2024-05-09T12:27:21.058Z,20.41
2024-05-09T12:28:23.035Z,20.43
2024-05-09T12:29:25.395Z,20.24
2024-05-09T12:30:35.668Z,20.26
2024-05-09T12:31:40.746Z,20.20
2024-05-09T12:32:42.690Z,19.88
2024-05-09T12:33:45.045Z,20.00
2024-05-09T12:34:46.888Z,20.19
2024-05-09T12:35:51.404Z,20.26
2024-05-09T12:36:53.171Z,20.04
2024-05-09T12:37:54.983Z,20.11
2024-05-09T12:38:56.691Z,20.02
2024-05-09T12:39:58.660Z,20.29
2024-05-09T12:41:00.810Z,20.25
2024-05-09T12:42:02.692Z,20.07
2024-05-09T12:43:09.280Z,19.95
2024-05-09T12:44:11.976Z,20.10
2024-05-09T12:45:14.046Z,20.05
2024-05-09T12:46:19.295Z,19.99
2024-05-09T12:47:21.222Z,20.07
2024-05-09T12:48:23.169Z,19.99
2024-05-09T12:49:25.171Z,19.75
2024-05-09T12:50:32.206Z,19.55
2024-05-09T12:51:35.847Z,19.63
2024-05-09T12:52:37.718Z,19.53
2024-05-09T12:53:39.478Z,19.57
2024-05-09T12:54:41.317Z,19.47
2024-05-09T12:55:52.614Z,19.25
2024-05-09T12:56:59.146Z,19.02
2024-05-09T12:58:01.134Z,19.07
2024-05-09T12:59:02.933Z,19.23
2024-05-09T13:00:05.803Z,19.17
2024-05-09T13:01:09.009Z,19.04
2024-05-09T13:02:11.208Z,19.01
2024-05-09T13:03:13.402Z,18.94
2024-05-09T13:04:15.547Z,18.73
2024-05-09T13:05:17.677Z,18.92
2024-05-09T13:06:19.467Z,19.11
2024-05-09T13:07:21.521Z,19.50
2024-05-09T13:08:23.599Z,19.52
2024-05-09T13:09:25.325Z,19.28
2024-05-09T13:10:32.072Z,19.18
2024-05-09T13:11:35.075Z,19.33
2024-05-09T13:12:37.298Z,19.14
2024-05-09T13:13:39.061Z,19.15
2024-05-09T13:14:40.930Z,19.36
2024-05-09T13:15:43.009Z,19.14
2024-05-09T13:16:44.833Z,19.15
2024-05-09T13:17:46.634Z,19.04
2024-05-09T13:18:48.670Z,19.31
2024-05-09T13:19:50.478Z,19.36
2024-05-09T13:20:52.147Z,19.07
2024-05-09T13:21:53.928Z,19.08
2024-05-09T13:22:55.714Z,18.89
2024-05-09T13:23:58.343Z,18.56
2024-05-09T13:25:01.632Z,18.51
2024-05-09T13:26:03.556Z,18.58
2024-05-09T13:27:05.350Z,18.45
2024-05-09T13:28:07.609Z,18.51
2024-05-09T13:29:09.767Z,18.52
2024-05-09T13:30:17.672Z,18.23
2024-05-09T13:31:23.618Z,18.61
2024-05-09T13:32:25.474Z,18.59
2024-05-09T13:33:30.192Z,18.49
2024-05-09T13:34:32.402Z,18.40
2024-05-09T13:35:34.122Z,18.37
2024-05-09T13:36:35.911Z,18.56
2024-05-09T13:37:37.935Z,18.27
2024-05-09T13:38:39.602Z,18.51
2024-05-09T13:39:41.418Z,18.67
2024-05-09T13:40:43.112Z,18.67